aviador You're here:

PAVA Decoded Metar

Chevak in AK, USA
Report Time2017-09-23 19:56:00
UTC Time2017-09-23 20:12:12
Flight Rules mvfr MVFR
Wind010° at 09 kt
W.Decomp.*RWY 02: 8.3 kt HW 3.5 kt LCW
W.Rank010° ranks 2
Current wind is below 010° avg. (14.6)
Visibility9999 m
Phenomena:N/A
Clouds:Broken 027 Hf
Overcast 034 Hf
Expected CloudBase > 800 ft AGL from Temp-Dew spread
Ceiling2,700 ft
Temp05°C (ISA -10)
Dew Point03°C (87% RH)
AAT0.3°C
QNH1002 hPa
Density Alt-636 ft
Elevation75 ft
Report Wrong Elevation
Raw Report
PAVA 231956Z AUTO 01009KT 10SM BKN027 OVC034 05/03 A2959 RMK AO2
SLP103 T00500028=

Extra information for PAVA:More info

Airport Information Weather charts Add Link Nearby Venues Social comments

AIRNAV info for PAVA